sensor_id;sensor_type;location;lat;lon;timestamp;P1;durP1;ratioP1;P2;durP2;ratioP2
18383;SDS011;9318;48.644;9.456;2022-11-15T00:00:47;16.93;;;7.33;;
18383;SDS011;9318;48.644;9.456;2022-11-15T00:03:15;13.27;;;6.53;;
18383;SDS011;9318;48.644;9.456;2022-11-15T00:05:43;14.03;;;7.63;;
18383;SDS011;9318;48.644;9.456;2022-11-15T00:08:10;18.33;;;9.50;;
18383;SDS011;9318;48.644;9.456;2022-11-15T00:10:37;20.00;;;9.50;;
18383;SDS011;9318;48.644;9.456;2022-11-15T00:13:05;18.73;;;8.87;;
18383;SDS011;9318;48.644;9.456;2022-11-15T00:15:34;23.03;;;9.67;;
18383;SDS011;9318;48.644;9.456;2022-11-15T00:18:04;18.33;;;8.63;;
18383;SDS011;9318;48.644;9.456;2022-11-15T00:20:33;18.80;;;8.93;;
18383;SDS011;9318;48.644;9.456;2022-11-15T00:23:02;16.97;;;8.77;;
18383;SDS011;9318;48.644;9.456;2022-11-15T00:25:30;19.40;;;8.80;;
18383;SDS011;9318;48.644;9.456;2022-11-15T00:27:57;17.97;;;9.00;;
18383;SDS011;9318;48.644;9.456;2022-11-15T00:30:25;16.90;;;8.40;;
18383;SDS011;9318;48.644;9.456;2022-11-15T00:32:53;19.13;;;8.90;;
18383;SDS011;9318;48.644;9.456;2022-11-15T00:35:22;18.27;;;8.40;;
18383;SDS011;9318;48.644;9.456;2022-11-15T00:37:49;14.83;;;7.80;;
18383;SDS011;9318;48.644;9.456;2022-11-15T00:40:18;16.70;;;8.40;;
18383;SDS011;9318;48.644;9.456;2022-11-15T00:42:46;15.83;;;7.77;;
18383;SDS011;9318;48.644;9.456;2022-11-15T00:45:13;18.63;;;8.07;;
18383;SDS011;9318;48.644;9.456;2022-11-15T00:47:40;16.93;;;7.87;;
18383;SDS011;9318;48.644;9.456;2022-11-15T00:50:11;17.60;;;8.40;;
18383;SDS011;9318;48.644;9.456;2022-11-15T00:52:40;19.67;;;8.43;;
18383;SDS011;9318;48.644;9.456;2022-11-15T00:55:09;15.97;;;8.20;;
18383;SDS011;9318;48.644;9.456;2022-11-15T00:57:40;16.70;;;8.30;;
18383;SDS011;9318;48.644;9.456;2022-11-15T01:00:07;16.63;;;7.90;;
18383;SDS011;9318;48.644;9.456;2022-11-15T01:02:35;16.40;;;8.10;;
18383;SDS011;9318;48.644;9.456;2022-11-15T01:05:03;15.53;;;8.50;;
18383;SDS011;9318;48.644;9.456;2022-11-15T01:07:30;18.17;;;8.43;;
18383;SDS011;9318;48.644;9.456;2022-11-15T01:10:00;16.87;;;8.20;;
18383;SDS011;9318;48.644;9.456;2022-11-15T01:12:27;17.47;;;8.00;;
18383;SDS011;9318;48.644;9.456;2022-11-15T01:14:55;16.83;;;8.00;;
18383;SDS011;9318;48.644;9.456;2022-11-15T01:17:22;19.83;;;8.90;;
18383;SDS011;9318;48.644;9.456;2022-11-15T01:19:49;17.57;;;8.63;;
18383;SDS011;9318;48.644;9.456;2022-11-15T01:22:16;15.70;;;8.10;;
18383;SDS011;9318;48.644;9.456;2022-11-15T01:24:43;17.53;;;8.30;;
18383;SDS011;9318;48.644;9.456;2022-11-15T01:27:12;16.10;;;8.00;;
18383;SDS011;9318;48.644;9.456;2022-11-15T01:29:39;15.13;;;8.20;;
18383;SDS011;9318;48.644;9.456;2022-11-15T01:32:06;19.43;;;8.37;;
18383;SDS011;9318;48.644;9.456;2022-11-15T01:34:34;17.83;;;8.63;;
18383;SDS011;9318;48.644;9.456;2022-11-15T01:37:01;17.13;;;8.87;;
18383;SDS011;9318;48.644;9.456;2022-11-15T01:39:28;17.53;;;8.40;;
18383;SDS011;9318;48.644;9.456;2022-11-15T01:41:56;18.97;;;8.70;;
18383;SDS011;9318;48.644;9.456;2022-11-15T01:47:15;17.80;;;7.87;;
18383;SDS011;9318;48.644;9.456;2022-11-15T01:49:50;19.87;;;9.43;;
18383;SDS011;9318;48.644;9.456;2022-11-15T01:52:22;16.70;;;8.10;;
18383;SDS011;9318;48.644;9.456;2022-11-15T01:54:53;19.60;;;8.10;;
18383;SDS011;9318;48.644;9.456;2022-11-15T01:57:26;18.13;;;8.60;;
18383;SDS011;9318;48.644;9.456;2022-11-15T01:59:55;16.40;;;8.10;;
18383;SDS011;9318;48.644;9.456;2022-11-15T02:02:24;16.87;;;8.73;;
18383;SDS011;9318;48.644;9.456;2022-11-15T02:04:52;17.37;;;8.80;;
18383;SDS011;9318;48.644;9.456;2022-11-15T02:07:20;17.40;;;8.57;;
18383;SDS011;9318;48.644;9.456;2022-11-15T02:09:48;18.43;;;8.53;;
18383;SDS011;9318;48.644;9.456;2022-11-15T02:12:18;18.00;;;8.97;;
18383;SDS011;9318;48.644;9.456;2022-11-15T02:14:47;19.30;;;8.50;;
18383;SDS011;9318;48.644;9.456;2022-11-15T02:17:24;18.93;;;8.73;;
18383;SDS011;9318;48.644;9.456;2022-11-15T02:26:07;16.83;;;8.53;;
18383;SDS011;9318;48.644;9.456;2022-11-15T02:28:53;18.03;;;8.70;;
18383;SDS011;9318;48.644;9.456;2022-11-15T02:31:29;17.63;;;8.80;;
18383;SDS011;9318;48.644;9.456;2022-11-15T02:34:04;21.10;;;9.60;;
18383;SDS011;9318;48.644;9.456;2022-11-15T02:36:40;18.00;;;8.97;;
18383;SDS011;9318;48.644;9.456;2022-11-15T02:39:15;18.53;;;9.50;;
18383;SDS011;9318;48.644;9.456;2022-11-15T02:41:50;23.60;;;9.73;;
18383;SDS011;9318;48.644;9.456;2022-11-15T02:44:23;19.60;;;9.47;;
18383;SDS011;9318;48.644;9.456;2022-11-15T02:46:54;18.30;;;8.90;;
18383;SDS011;9318;48.644;9.456;2022-11-15T02:49:40;18.37;;;8.97;;
18383;SDS011;9318;48.644;9.456;2022-11-15T02:52:14;20.57;;;9.27;;
18383;SDS011;9318;48.644;9.456;2022-11-15T02:54:42;20.03;;;9.57;;
18383;SDS011;9318;48.644;9.456;2022-11-15T02:57:18;18.67;;;9.27;;
18383;SDS011;9318;48.644;9.456;2022-11-15T03:00:02;19.13;;;9.30;;
18383;SDS011;9318;48.644;9.456;2022-11-15T03:02:39;21.80;;;9.83;;
18383;SDS011;9318;48.644;9.456;2022-11-15T03:05:14;18.43;;;9.03;;
18383;SDS011;9318;48.644;9.456;2022-11-15T03:07:47;20.67;;;9.43;;
18383;SDS011;9318;48.644;9.456;2022-11-15T03:10:22;23.63;;;11.23;;
18383;SDS011;9318;48.644;9.456;2022-11-15T03:12:56;26.17;;;12.90;;
18383;SDS011;9318;48.644;9.456;2022-11-15T03:15:27;25.33;;;12.97;;
18383;SDS011;9318;48.644;9.456;2022-11-15T03:17:59;25.20;;;12.10;;
18383;SDS011;9318;48.644;9.456;2022-11-15T03:20:30;26.90;;;12.27;;
18383;SDS011;9318;48.644;9.456;2022-11-15T03:23:00;26.57;;;12.53;;
18383;SDS011;9318;48.644;9.456;2022-11-15T03:25:31;26.10;;;11.83;;
18383;SDS011;9318;48.644;9.456;2022-11-15T03:28:01;23.40;;;11.77;;
18383;SDS011;9318;48.644;9.456;2022-11-15T03:33:55;24.70;;;11.33;;
18383;SDS011;9318;48.644;9.456;2022-11-15T03:36:25;23.47;;;10.77;;
18383;SDS011;9318;48.644;9.456;2022-11-15T03:38:54;20.87;;;9.90;;
18383;SDS011;9318;48.644;9.456;2022-11-15T03:41:27;25.90;;;10.57;;
18383;SDS011;9318;48.644;9.456;2022-11-15T03:43:59;19.73;;;9.17;;
18383;SDS011;9318;48.644;9.456;2022-11-15T03:46:32;19.13;;;9.10;;
18383;SDS011;9318;48.644;9.456;2022-11-15T03:49:04;18.93;;;8.83;;
18383;SDS011;9318;48.644;9.456;2022-11-15T03:51:36;17.10;;;8.03;;
18383;SDS011;9318;48.644;9.456;2022-11-15T03:54:04;18.70;;;8.47;;
18383;SDS011;9318;48.644;9.456;2022-11-15T03:56:31;19.07;;;8.13;;
18383;SDS011;9318;48.644;9.456;2022-11-15T03:58:58;16.37;;;8.10;;
18383;SDS011;9318;48.644;9.456;2022-11-15T04:01:25;19.63;;;8.13;;
18383;SDS011;9318;48.644;9.456;2022-11-15T04:03:52;17.50;;;8.10;;
18383;SDS011;9318;48.644;9.456;2022-11-15T04:06:21;17.00;;;8.00;;
18383;SDS011;9318;48.644;9.456;2022-11-15T04:08:48;18.50;;;7.70;;
18383;SDS011;9318;48.644;9.456;2022-11-15T04:11:15;19.13;;;8.47;;
18383;SDS011;9318;48.644;9.456;2022-11-15T04:13:42;16.63;;;7.80;;
18383;SDS011;9318;48.644;9.456;2022-11-15T04:16:09;16.40;;;7.73;;
18383;SDS011;9318;48.644;9.456;2022-11-15T04:18:36;16.17;;;7.80;;
18383;SDS011;9318;48.644;9.456;2022-11-15T04:21:04;13.50;;;7.20;;
18383;SDS011;9318;48.644;9.456;2022-11-15T04:23:50;13.07;;;6.50;;
18383;SDS011;9318;48.644;9.456;2022-11-15T04:26:34;15.00;;;7.00;;
18383;SDS011;9318;48.644;9.456;2022-11-15T04:29:01;14.67;;;6.80;;
18383;SDS011;9318;48.644;9.456;2022-11-15T04:31:45;15.53;;;7.20;;
18383;SDS011;9318;48.644;9.456;2022-11-15T04:34:12;14.93;;;7.07;;
18383;SDS011;9318;48.644;9.456;2022-11-15T04:36:39;20.23;;;9.33;;
18383;SDS011;9318;48.644;9.456;2022-11-15T04:39:25;19.60;;;9.57;;
18383;SDS011;9318;48.644;9.456;2022-11-15T04:41:52;23.80;;;9.93;;
18383;SDS011;9318;48.644;9.456;2022-11-15T04:44:19;21.30;;;9.97;;
18383;SDS011;9318;48.644;9.456;2022-11-15T04:46:47;22.17;;;10.20;;
18383;SDS011;9318;48.644;9.456;2022-11-15T04:49:15;20.47;;;9.57;;
18383;SDS011;9318;48.644;9.456;2022-11-15T04:51:42;17.20;;;8.90;;
18383;SDS011;9318;48.644;9.456;2022-11-15T04:54:10;18.40;;;9.00;;
18383;SDS011;9318;48.644;9.456;2022-11-15T04:56:38;19.03;;;9.40;;
18383;SDS011;9318;48.644;9.456;2022-11-15T04:59:06;18.67;;;9.53;;
18383;SDS011;9318;48.644;9.456;2022-11-15T05:01:33;18.93;;;9.77;;
18383;SDS011;9318;48.644;9.456;2022-11-15T05:04:00;20.27;;;10.30;;
18383;SDS011;9318;48.644;9.456;2022-11-15T05:06:45;22.23;;;10.50;;
18383;SDS011;9318;48.644;9.456;2022-11-15T05:09:13;19.80;;;9.40;;
18383;SDS011;9318;48.644;9.456;2022-11-15T05:11:42;18.30;;;9.33;;
18383;SDS011;9318;48.644;9.456;2022-11-15T05:14:10;22.10;;;9.67;;
18383;SDS011;9318;48.644;9.456;2022-11-15T05:16:37;21.70;;;9.47;;
18383;SDS011;9318;48.644;9.456;2022-11-15T05:19:04;20.90;;;9.27;;
18383;SDS011;9318;48.644;9.456;2022-11-15T05:21:32;18.77;;;9.17;;
18383;SDS011;9318;48.644;9.456;2022-11-15T05:24:00;19.23;;;8.83;;
18383;SDS011;9318;48.644;9.456;2022-11-15T05:26:28;17.63;;;8.80;;
18383;SDS011;9318;48.644;9.456;2022-11-15T05:28:57;19.73;;;8.97;;
18383;SDS011;9318;48.644;9.456;2022-11-15T05:31:25;17.97;;;8.93;;
18383;SDS011;9318;48.644;9.456;2022-11-15T05:33:53;20.10;;;9.30;;
18383;SDS011;9318;48.644;9.456;2022-11-15T05:36:24;19.20;;;9.20;;
18383;SDS011;9318;48.644;9.456;2022-11-15T05:38:55;25.70;;;9.67;;
18383;SDS011;9318;48.644;9.456;2022-11-15T05:41:25;20.80;;;10.13;;
18383;SDS011;9318;48.644;9.456;2022-11-15T05:43:58;19.63;;;10.37;;
18383;SDS011;9318;48.644;9.456;2022-11-15T05:46:27;18.60;;;10.47;;
18383;SDS011;9318;48.644;9.456;2022-11-15T05:48:55;22.20;;;10.53;;
18383;SDS011;9318;48.644;9.456;2022-11-15T05:51:23;22.00;;;10.00;;
18383;SDS011;9318;48.644;9.456;2022-11-15T05:53:54;20.60;;;9.80;;
18383;SDS011;9318;48.644;9.456;2022-11-15T05:56:22;19.60;;;9.83;;
18383;SDS011;9318;48.644;9.456;2022-11-15T05:58:51;18.50;;;9.30;;
18383;SDS011;9318;48.644;9.456;2022-11-15T06:01:21;17.97;;;9.33;;
18383;SDS011;9318;48.644;9.456;2022-11-15T06:03:48;17.03;;;8.77;;
18383;SDS011;9318;48.644;9.456;2022-11-15T06:06:15;17.97;;;9.20;;
18383;SDS011;9318;48.644;9.456;2022-11-15T06:08:43;19.50;;;8.83;;
18383;SDS011;9318;48.644;9.456;2022-11-15T06:11:10;23.50;;;10.83;;
18383;SDS011;9318;48.644;9.456;2022-11-15T06:13:38;24.43;;;10.77;;
18383;SDS011;9318;48.644;9.456;2022-11-15T06:16:05;18.50;;;9.43;;
18383;SDS011;9318;48.644;9.456;2022-11-15T06:18:34;23.90;;;10.57;;
18383;SDS011;9318;48.644;9.456;2022-11-15T06:21:02;19.60;;;9.40;;
18383;SDS011;9318;48.644;9.456;2022-11-15T06:23:31;22.33;;;9.93;;
18383;SDS011;9318;48.644;9.456;2022-11-15T06:25:59;32.47;;;10.37;;
18383;SDS011;9318;48.644;9.456;2022-11-15T06:28:27;18.83;;;9.07;;
18383;SDS011;9318;48.644;9.456;2022-11-15T06:30:55;21.43;;;9.60;;
18383;SDS011;9318;48.644;9.456;2022-11-15T06:33:23;19.80;;;9.47;;
18383;SDS011;9318;48.644;9.456;2022-11-15T06:35:51;18.27;;;9.10;;
18383;SDS011;9318;48.644;9.456;2022-11-15T06:38:19;23.23;;;9.73;;
18383;SDS011;9318;48.644;9.456;2022-11-15T06:40:46;19.47;;;10.90;;
18383;SDS011;9318;48.644;9.456;2022-11-15T06:43:13;21.93;;;10.30;;
18383;SDS011;9318;48.644;9.456;2022-11-15T06:45:40;21.53;;;10.27;;
18383;SDS011;9318;48.644;9.456;2022-11-15T06:48:07;20.70;;;9.87;;
18383;SDS011;9318;48.644;9.456;2022-11-15T06:50:35;19.77;;;9.63;;
18383;SDS011;9318;48.644;9.456;2022-11-15T06:53:03;20.30;;;9.73;;
18383;SDS011;9318;48.644;9.456;2022-11-15T06:55:30;26.87;;;14.20;;
18383;SDS011;9318;48.644;9.456;2022-11-15T06:57:57;22.97;;;11.47;;
18383;SDS011;9318;48.644;9.456;2022-11-15T07:00:25;23.97;;;12.47;;
18383;SDS011;9318;48.644;9.456;2022-11-15T07:02:52;27.10;;;13.07;;
18383;SDS011;9318;48.644;9.456;2022-11-15T07:05:19;23.30;;;11.80;;
18383;SDS011;9318;48.644;9.456;2022-11-15T07:07:51;27.67;;;12.37;;
18383;SDS011;9318;48.644;9.456;2022-11-15T07:10:20;23.60;;;12.03;;
18383;SDS011;9318;48.644;9.456;2022-11-15T07:12:49;23.23;;;11.53;;
18383;SDS011;9318;48.644;9.456;2022-11-15T07:15:17;23.30;;;10.57;;
18383;SDS011;9318;48.644;9.456;2022-11-15T07:17:45;20.47;;;10.30;;
18383;SDS011;9318;48.644;9.456;2022-11-15T07:20:12;21.60;;;9.77;;
18383;SDS011;9318;48.644;9.456;2022-11-15T07:22:40;21.20;;;10.03;;
18383;SDS011;9318;48.644;9.456;2022-11-15T07:25:07;22.10;;;9.40;;
18383;SDS011;9318;48.644;9.456;2022-11-15T07:27:37;18.67;;;9.40;;
18383;SDS011;9318;48.644;9.456;2022-11-15T07:30:04;15.03;;;7.87;;
18383;SDS011;9318;48.644;9.456;2022-11-15T07:32:34;15.70;;;7.93;;
18383;SDS011;9318;48.644;9.456;2022-11-15T07:35:01;18.37;;;7.87;;
18383;SDS011;9318;48.644;9.456;2022-11-15T07:37:29;15.20;;;8.20;;
18383;SDS011;9318;48.644;9.456;2022-11-15T07:39:57;16.47;;;8.20;;
18383;SDS011;9318;48.644;9.456;2022-11-15T07:42:24;18.67;;;8.10;;
18383;SDS011;9318;48.644;9.456;2022-11-15T07:45:09;17.37;;;8.10;;
18383;SDS011;9318;48.644;9.456;2022-11-15T07:47:37;20.40;;;9.00;;
18383;SDS011;9318;48.644;9.456;2022-11-15T07:50:04;20.20;;;9.60;;
18383;SDS011;9318;48.644;9.456;2022-11-15T07:52:32;19.53;;;9.80;;
18383;SDS011;9318;48.644;9.456;2022-11-15T07:54:59;19.90;;;9.80;;
18383;SDS011;9318;48.644;9.456;2022-11-15T07:57:26;23.30;;;9.97;;
18383;SDS011;9318;48.644;9.456;2022-11-15T07:59:53;23.87;;;10.40;;
18383;SDS011;9318;48.644;9.456;2022-11-15T08:02:21;23.07;;;10.00;;
18383;SDS011;9318;48.644;9.456;2022-11-15T08:04:49;23.63;;;10.47;;
18383;SDS011;9318;48.644;9.456;2022-11-15T08:07:16;24.10;;;10.57;;
18383;SDS011;9318;48.644;9.456;2022-11-15T08:09:43;22.57;;;11.07;;
18383;SDS011;9318;48.644;9.456;2022-11-15T08:12:11;25.53;;;10.57;;
18383;SDS011;9318;48.644;9.456;2022-11-15T08:14:38;23.77;;;11.00;;
18383;SDS011;9318;48.644;9.456;2022-11-15T08:17:05;23.03;;;10.80;;
18383;SDS011;9318;48.644;9.456;2022-11-15T08:19:34;21.37;;;10.77;;
18383;SDS011;9318;48.644;9.456;2022-11-15T08:22:01;28.07;;;11.63;;
18383;SDS011;9318;48.644;9.456;2022-11-15T08:24:28;23.23;;;11.07;;
18383;SDS011;9318;48.644;9.456;2022-11-15T08:26:55;21.70;;;10.50;;
18383;SDS011;9318;48.644;9.456;2022-11-15T08:29:22;20.23;;;10.17;;
18383;SDS011;9318;48.644;9.456;2022-11-15T08:31:50;22.10;;;10.47;;
18383;SDS011;9318;48.644;9.456;2022-11-15T08:34:17;20.00;;;9.73;;
18383;SDS011;9318;48.644;9.456;2022-11-15T08:36:45;18.50;;;9.80;;
18383;SDS011;9318;48.644;9.456;2022-11-15T08:39:13;19.57;;;9.40;;
18383;SDS011;9318;48.644;9.456;2022-11-15T08:41:40;17.10;;;9.20;;
18383;SDS011;9318;48.644;9.456;2022-11-15T08:44:07;21.40;;;9.47;;
18383;SDS011;9318;48.644;9.456;2022-11-15T08:46:34;20.73;;;9.20;;
18383;SDS011;9318;48.644;9.456;2022-11-15T08:49:02;21.60;;;9.20;;
18383;SDS011;9318;48.644;9.456;2022-11-15T08:51:29;21.00;;;9.40;;
18383;SDS011;9318;48.644;9.456;2022-11-15T08:53:57;22.47;;;9.50;;
18383;SDS011;9318;48.644;9.456;2022-11-15T08:56:25;23.87;;;11.40;;
18383;SDS011;9318;48.644;9.456;2022-11-15T08:58:52;24.57;;;11.23;;
18383;SDS011;9318;48.644;9.456;2022-11-15T09:01:20;27.90;;;11.90;;
18383;SDS011;9318;48.644;9.456;2022-11-15T09:03:48;26.77;;;12.63;;
18383;SDS011;9318;48.644;9.456;2022-11-15T09:06:15;28.13;;;12.27;;
18383;SDS011;9318;48.644;9.456;2022-11-15T09:08:42;25.73;;;11.63;;
18383;SDS011;9318;48.644;9.456;2022-11-15T09:11:11;25.40;;;12.70;;
18383;SDS011;9318;48.644;9.456;2022-11-15T09:13:39;27.37;;;13.10;;
18383;SDS011;9318;48.644;9.456;2022-11-15T09:16:07;26.87;;;11.80;;
18383;SDS011;9318;48.644;9.456;2022-11-15T09:18:34;28.33;;;12.40;;
18383;SDS011;9318;48.644;9.456;2022-11-15T09:21:01;30.97;;;15.07;;
18383;SDS011;9318;48.644;9.456;2022-11-15T09:23:29;30.00;;;10.60;;
18383;SDS011;9318;48.644;9.456;2022-11-15T09:26:00;24.13;;;10.83;;
18383;SDS011;9318;48.644;9.456;2022-11-15T09:28:30;29.40;;;13.00;;
18383;SDS011;9318;48.644;9.456;2022-11-15T09:30:59;27.93;;;12.00;;
18383;SDS011;9318;48.644;9.456;2022-11-15T09:33:28;25.13;;;11.57;;
18383;SDS011;9318;48.644;9.456;2022-11-15T09:35:59;24.43;;;11.27;;
18383;SDS011;9318;48.644;9.456;2022-11-15T09:38:27;22.07;;;10.60;;
18383;SDS011;9318;48.644;9.456;2022-11-15T09:40:57;22.30;;;9.97;;
18383;SDS011;9318;48.644;9.456;2022-11-15T09:43:45;21.77;;;9.97;;
18383;SDS011;9318;48.644;9.456;2022-11-15T09:46:22;21.87;;;9.27;;
18383;SDS011;9318;48.644;9.456;2022-11-15T09:48:59;18.63;;;9.17;;
18383;SDS011;9318;48.644;9.456;2022-11-15T09:51:28;19.90;;;9.73;;
18383;SDS011;9318;48.644;9.456;2022-11-15T09:54:03;23.90;;;10.77;;
18383;SDS011;9318;48.644;9.456;2022-11-15T09:56:37;30.33;;;10.80;;
18383;SDS011;9318;48.644;9.456;2022-11-15T09:59:13;31.77;;;11.80;;
18383;SDS011;9318;48.644;9.456;2022-11-15T10:01:50;25.00;;;11.03;;
18383;SDS011;9318;48.644;9.456;2022-11-15T10:04:23;21.80;;;9.23;;
18383;SDS011;9318;48.644;9.456;2022-11-15T10:06:54;22.13;;;9.43;;
18383;SDS011;9318;48.644;9.456;2022-11-15T10:09:28;21.03;;;8.93;;
18383;SDS011;9318;48.644;9.456;2022-11-15T10:12:00;19.33;;;8.90;;
18383;SDS011;9318;48.644;9.456;2022-11-15T10:14:29;21.20;;;9.07;;
18383;SDS011;9318;48.644;9.456;2022-11-15T10:17:11;20.70;;;8.67;;
18383;SDS011;9318;48.644;9.456;2022-11-15T10:19:52;22.03;;;9.70;;
18383;SDS011;9318;48.644;9.456;2022-11-15T10:22:27;19.03;;;8.83;;
18383;SDS011;9318;48.644;9.456;2022-11-15T10:25:13;19.63;;;8.93;;
18383;SDS011;9318;48.644;9.456;2022-11-15T10:27:54;20.07;;;9.03;;
18383;SDS011;9318;48.644;9.456;2022-11-15T10:30:29;21.63;;;8.80;;
18383;SDS011;9318;48.644;9.456;2022-11-15T10:32:59;21.77;;;9.63;;
18383;SDS011;9318;48.644;9.456;2022-11-15T10:35:46;22.40;;;9.00;;
18383;SDS011;9318;48.644;9.456;2022-11-15T10:38:14;18.05;;;8.35;;
18383;SDS011;9318;48.644;9.456;2022-11-15T10:40:41;18.27;;;8.15;;
18383;SDS011;9318;48.644;9.456;2022-11-15T10:43:14;23.73;;;8.30;;
18383;SDS011;9318;48.644;9.456;2022-11-15T10:45:45;18.33;;;8.52;;
18383;SDS011;9318;48.644;9.456;2022-11-15T10:48:20;17.17;;;7.63;;
18383;SDS011;9318;48.644;9.456;2022-11-15T10:50:50;18.90;;;8.07;;
18383;SDS011;9318;48.644;9.456;2022-11-15T10:53:27;21.88;;;7.63;;
18383;SDS011;9318;48.644;9.456;2022-11-15T10:55:59;17.08;;;7.40;;
18383;SDS011;9318;48.644;9.456;2022-11-15T10:58:33;24.63;;;8.55;;
18383;SDS011;9318;48.644;9.456;2022-11-15T11:01:15;16.88;;;8.25;;
18383;SDS011;9318;48.644;9.456;2022-11-15T11:03:44;23.10;;;8.45;;
18383;SDS011;9318;48.644;9.456;2022-11-15T11:06:23;21.42;;;8.40;;
18383;SDS011;9318;48.644;9.456;2022-11-15T11:08:55;15.60;;;7.35;;
18383;SDS011;9318;48.644;9.456;2022-11-15T11:11:23;18.70;;;9.35;;
18383;SDS011;9318;48.644;9.456;2022-11-15T11:13:50;16.73;;;7.72;;
18383;SDS011;9318;48.644;9.456;2022-11-15T11:19:17;15.55;;;6.82;;
18383;SDS011;9318;48.644;9.456;2022-11-15T11:22:00;18.63;;;7.47;;
18383;SDS011;9318;48.644;9.456;2022-11-15T11:24:36;16.87;;;6.93;;
18383;SDS011;9318;48.644;9.456;2022-11-15T11:27:17;18.35;;;6.53;;
18383;SDS011;9318;48.644;9.456;2022-11-15T11:29:58;12.83;;;6.70;;
18383;SDS011;9318;48.644;9.456;2022-11-15T11:32:54;14.57;;;6.77;;
18383;SDS011;9318;48.644;9.456;2022-11-15T11:35:29;14.90;;;6.43;;
18383;SDS011;9318;48.644;9.456;2022-11-15T11:38:04;15.37;;;6.13;;
18383;SDS011;9318;48.644;9.456;2022-11-15T11:40:43;16.50;;;6.70;;
18383;SDS011;9318;48.644;9.456;2022-11-15T11:43:19;15.90;;;7.07;;
18383;SDS011;9318;48.644;9.456;2022-11-15T11:45:57;15.27;;;6.43;;
18383;SDS011;9318;48.644;9.456;2022-11-15T11:48:42;15.50;;;6.90;;
18383;SDS011;9318;48.644;9.456;2022-11-15T11:51:13;16.30;;;7.03;;
18383;SDS011;9318;48.644;9.456;2022-11-15T11:53:46;12.47;;;6.43;;
18383;SDS011;9318;48.644;9.456;2022-11-15T11:56:22;16.13;;;7.20;;
18383;SDS011;9318;48.644;9.456;2022-11-15T11:58:53;17.07;;;6.77;;
18383;SDS011;9318;48.644;9.456;2022-11-15T12:01:24;13.80;;;6.40;;
18383;SDS011;9318;48.644;9.456;2022-11-15T12:03:59;16.30;;;7.40;;
18383;SDS011;9318;48.644;9.456;2022-11-15T12:06:31;14.07;;;7.07;;
18383;SDS011;9318;48.644;9.456;2022-11-15T12:09:04;16.27;;;6.50;;
18383;SDS011;9318;48.644;9.456;2022-11-15T12:11:42;18.17;;;7.10;;
18383;SDS011;9318;48.644;9.456;2022-11-15T12:14:19;17.27;;;6.73;;
18383;SDS011;9318;48.644;9.456;2022-11-15T12:16:58;14.57;;;6.17;;
18383;SDS011;9318;48.644;9.456;2022-11-15T12:19:27;14.37;;;6.87;;
18383;SDS011;9318;48.644;9.456;2022-11-15T12:21:57;14.97;;;7.23;;
18383;SDS011;9318;48.644;9.456;2022-11-15T12:24:29;18.53;;;7.33;;
18383;SDS011;9318;48.644;9.456;2022-11-15T12:27:02;19.00;;;7.37;;
18383;SDS011;9318;48.644;9.456;2022-11-15T12:29:33;13.63;;;6.60;;
18383;SDS011;9318;48.644;9.456;2022-11-15T12:32:04;15.70;;;7.00;;
18383;SDS011;9318;48.644;9.456;2022-11-15T12:34:43;14.20;;;6.50;;
18383;SDS011;9318;48.644;9.456;2022-11-15T12:40:21;17.67;;;7.03;;
18383;SDS011;9318;48.644;9.456;2022-11-15T12:43:04;15.17;;;6.67;;
18383;SDS011;9318;48.644;9.456;2022-11-15T12:45:47;14.73;;;7.07;;
18383;SDS011;9318;48.644;9.456;2022-11-15T12:51:14;13.67;;;6.80;;
18383;SDS011;9318;48.644;9.456;2022-11-15T12:53:42;11.57;;;6.00;;
18383;SDS011;9318;48.644;9.456;2022-11-15T12:56:20;14.10;;;6.40;;
18383;SDS011;9318;48.644;9.456;2022-11-15T12:58:50;14.70;;;6.93;;
18383;SDS011;9318;48.644;9.456;2022-11-15T13:04:25;12.00;;;6.50;;
18383;SDS011;9318;48.644;9.456;2022-11-15T13:06:56;11.97;;;6.30;;
18383;SDS011;9318;48.644;9.456;2022-11-15T13:15:39;13.23;;;6.13;;
18383;SDS011;9318;48.644;9.456;2022-11-15T13:18:30;13.47;;;6.20;;
18383;SDS011;9318;48.644;9.456;2022-11-15T13:20:59;16.90;;;7.07;;
18383;SDS011;9318;48.644;9.456;2022-11-15T13:23:52;21.10;;;7.43;;
18383;SDS011;9318;48.644;9.456;2022-11-15T13:26:20;21.17;;;7.37;;
18383;SDS011;9318;48.644;9.456;2022-11-15T13:28:49;20.60;;;8.10;;
18383;SDS011;9318;48.644;9.456;2022-11-15T13:34:13;14.50;;;6.43;;
18383;SDS011;9318;48.644;9.456;2022-11-15T13:36:53;17.97;;;7.40;;
18383;SDS011;9318;48.644;9.456;2022-11-15T13:39:27;15.60;;;7.17;;
18383;SDS011;9318;48.644;9.456;2022-11-15T13:41:56;18.50;;;7.77;;
18383;SDS011;9318;48.644;9.456;2022-11-15T13:44:24;18.33;;;7.80;;
18383;SDS011;9318;48.644;9.456;2022-11-15T13:49:39;12.13;;;6.77;;
18383;SDS011;9318;48.644;9.456;2022-11-15T13:52:08;17.37;;;7.37;;
18383;SDS011;9318;48.644;9.456;2022-11-15T13:54:42;18.53;;;7.20;;
18383;SDS011;9318;48.644;9.456;2022-11-15T13:57:12;19.80;;;7.67;;
18383;SDS011;9318;48.644;9.456;2022-11-15T13:59:45;18.93;;;8.00;;
18383;SDS011;9318;48.644;9.456;2022-11-15T14:02:15;18.70;;;8.50;;
18383;SDS011;9318;48.644;9.456;2022-11-15T14:04:46;21.53;;;8.17;;
18383;SDS011;9318;48.644;9.456;2022-11-15T14:07:17;21.33;;;7.70;;
18383;SDS011;9318;48.644;9.456;2022-11-15T14:09:47;22.87;;;8.90;;
18383;SDS011;9318;48.644;9.456;2022-11-15T14:12:28;21.17;;;8.03;;
18383;SDS011;9318;48.644;9.456;2022-11-15T14:14:58;21.77;;;8.20;;
18383;SDS011;9318;48.644;9.456;2022-11-15T14:17:33;19.63;;;8.10;;
18383;SDS011;9318;48.644;9.456;2022-11-15T14:20:18;18.03;;;8.00;;
18383;SDS011;9318;48.644;9.456;2022-11-15T14:22:52;17.47;;;7.60;;
18383;SDS011;9318;48.644;9.456;2022-11-15T14:25:22;16.83;;;7.40;;
18383;SDS011;9318;48.644;9.456;2022-11-15T14:28:10;20.10;;;8.37;;
18383;SDS011;9318;48.644;9.456;2022-11-15T14:30:55;23.07;;;9.23;;
18383;SDS011;9318;48.644;9.456;2022-11-15T14:33:25;23.20;;;9.23;;
18383;SDS011;9318;48.644;9.456;2022-11-15T14:35:56;21.73;;;9.57;;
18383;SDS011;9318;48.644;9.456;2022-11-15T14:38:24;22.90;;;9.27;;
18383;SDS011;9318;48.644;9.456;2022-11-15T14:40:53;20.00;;;8.80;;
18383;SDS011;9318;48.644;9.456;2022-11-15T14:43:21;23.33;;;10.17;;
18383;SDS011;9318;48.644;9.456;2022-11-15T14:45:49;26.07;;;10.20;;
18383;SDS011;9318;48.644;9.456;2022-11-15T14:48:16;22.83;;;11.03;;
18383;SDS011;9318;48.644;9.456;2022-11-15T14:50:44;28.50;;;12.43;;
18383;SDS011;9318;48.644;9.456;2022-11-15T14:53:12;27.23;;;12.70;;
18383;SDS011;9318;48.644;9.456;2022-11-15T14:55:41;29.33;;;13.03;;
18383;SDS011;9318;48.644;9.456;2022-11-15T14:58:10;27.03;;;11.67;;
18383;SDS011;9318;48.644;9.456;2022-11-15T15:00:38;25.77;;;11.87;;
18383;SDS011;9318;48.644;9.456;2022-11-15T15:03:06;32.13;;;14.63;;
18383;SDS011;9318;48.644;9.456;2022-11-15T15:05:34;28.47;;;12.37;;
18383;SDS011;9318;48.644;9.456;2022-11-15T15:08:04;25.33;;;11.37;;
18383;SDS011;9318;48.644;9.456;2022-11-15T15:10:32;26.77;;;12.07;;
18383;SDS011;9318;48.644;9.456;2022-11-15T15:13:02;28.37;;;11.57;;
18383;SDS011;9318;48.644;9.456;2022-11-15T15:15:33;24.73;;;10.30;;
18383;SDS011;9318;48.644;9.456;2022-11-15T15:18:02;20.30;;;9.03;;
18383;SDS011;9318;48.644;9.456;2022-11-15T15:20:30;16.07;;;8.03;;
18383;SDS011;9318;48.644;9.456;2022-11-15T15:22:58;20.20;;;8.03;;
18383;SDS011;9318;48.644;9.456;2022-11-15T15:25:27;16.77;;;7.73;;
18383;SDS011;9318;48.644;9.456;2022-11-15T15:27:55;15.10;;;7.27;;
18383;SDS011;9318;48.644;9.456;2022-11-15T15:30:22;17.20;;;7.90;;
18383;SDS011;9318;48.644;9.456;2022-11-15T15:32:52;20.43;;;8.17;;
18383;SDS011;9318;48.644;9.456;2022-11-15T15:35:20;17.80;;;6.90;;
18383;SDS011;9318;48.644;9.456;2022-11-15T15:37:48;16.87;;;7.47;;
18383;SDS011;9318;48.644;9.456;2022-11-15T15:40:17;21.57;;;9.80;;
18383;SDS011;9318;48.644;9.456;2022-11-15T15:42:46;21.93;;;8.03;;